createdAt,value
2018-09-05T00:00:13.007Z,12.57
2018-09-05T00:05:16.248Z,11.70
2018-09-05T00:10:19.492Z,12.60
2018-09-05T00:15:22.720Z,12.00
2018-09-05T00:20:25.960Z,11.70
2018-09-05T00:25:29.192Z,11.90
2018-09-05T00:30:32.413Z,12.63
2018-09-05T00:35:35.639Z,12.03
2018-09-05T00:40:38.886Z,11.70
2018-09-05T00:45:42.113Z,12.73
2018-09-05T00:50:45.369Z,13.20
2018-09-05T00:55:48.651Z,11.70
2018-09-05T01:00:51.901Z,12.87
2018-09-05T01:05:55.143Z,10.67
2018-09-05T01:10:58.405Z,11.93
2018-09-05T01:16:01.628Z,13.03
2018-09-05T01:21:04.864Z,11.67
2018-09-05T01:26:08.059Z,11.97
2018-09-05T01:31:11.270Z,11.00
2018-09-05T01:36:15.847Z,10.90
2018-09-05T01:41:19.043Z,12.70
2018-09-05T01:46:22.279Z,12.50
2018-09-05T01:51:25.503Z,11.83
2018-09-05T01:56:28.699Z,11.03
2018-09-05T02:01:31.910Z,12.07
2018-09-05T02:06:35.150Z,12.13
2018-09-05T02:11:38.383Z,11.40
2018-09-05T02:16:42.330Z,12.83
2018-09-05T02:21:45.563Z,12.00
2018-09-05T02:26:48.773Z,12.30
2018-09-05T02:31:52.008Z,12.20
2018-09-05T02:36:55.227Z,12.10
2018-09-05T02:41:58.724Z,12.07
2018-09-05T02:47:01.936Z,11.90
2018-09-05T02:52:05.328Z,13.00
2018-09-05T02:57:08.527Z,12.60
2018-09-05T03:02:11.718Z,13.30
2018-09-05T03:07:14.943Z,12.57
2018-09-05T03:12:21.375Z,12.00
2018-09-05T03:17:24.591Z,12.80
2018-09-05T03:22:27.845Z,12.80
2018-09-05T03:27:31.068Z,11.80
2018-09-05T03:32:34.388Z,12.20
2018-09-05T03:37:37.604Z,13.20
2018-09-05T03:42:40.832Z,12.83
2018-09-05T03:47:44.043Z,11.20
2018-09-05T03:52:53.933Z,13.43
2018-09-05T03:57:57.147Z,13.03
2018-09-05T04:03:01.716Z,12.30
2018-09-05T04:08:04.931Z,14.07
2018-09-05T04:13:08.243Z,13.70
2018-09-05T04:18:13.039Z,13.10
2018-09-05T04:23:16.434Z,11.80
2018-09-05T04:28:19.679Z,12.60
2018-09-05T04:33:22.884Z,12.70
2018-09-05T04:38:26.084Z,13.20
2018-09-05T04:43:29.739Z,12.30
2018-09-05T04:48:32.924Z,11.40
2018-09-05T04:53:36.284Z,12.90
2018-09-05T04:58:39.492Z,13.30
2018-09-05T05:03:42.671Z,13.47
2018-09-05T05:08:45.892Z,13.27
2018-09-05T05:13:49.108Z,12.50
2018-09-05T05:18:52.283Z,13.87
2018-09-05T05:23:55.491Z,14.40
2018-09-05T05:28:58.689Z,14.20
2018-09-05T05:34:02.044Z,14.10
2018-09-05T05:39:08.109Z,13.73
2018-09-05T05:44:11.308Z,13.73
2018-09-05T05:49:14.495Z,13.07
2018-09-05T05:54:17.687Z,13.73
2018-09-05T05:59:20.896Z,13.13
2018-09-05T06:04:24.084Z,13.40
2018-09-05T06:09:27.316Z,13.93
2018-09-05T06:14:30.556Z,13.50
2018-09-05T06:19:33.788Z,12.10
2018-09-05T06:24:37.003Z,12.77
2018-09-05T06:29:40.231Z,12.10
2018-09-05T06:34:43.428Z,12.30
2018-09-05T06:39:46.640Z,13.37
2018-09-05T06:44:49.919Z,13.47
2018-09-05T06:49:53.087Z,13.70
2018-09-05T06:54:56.334Z,12.33
2018-09-05T06:59:59.547Z,11.87
2018-09-05T07:05:02.776Z,12.77
2018-09-05T07:10:06.062Z,13.30
2018-09-05T07:15:09.244Z,11.43
2018-09-05T07:20:12.457Z,12.17
2018-09-05T07:25:15.708Z,13.37
2018-09-05T07:30:18.941Z,14.07
2018-09-05T07:35:22.148Z,12.10
2018-09-05T07:40:25.360Z,13.57
2018-09-05T07:45:28.619Z,11.87
2018-09-05T07:50:31.892Z,12.20
2018-09-05T07:55:35.088Z,12.63
2018-09-05T08:01:13.068Z,14.57
2018-09-05T08:06:16.335Z,12.20
2018-09-05T08:11:19.520Z,13.23
2018-09-05T08:16:22.787Z,12.30
2018-09-05T08:21:25.982Z,14.93
2018-09-05T08:26:29.180Z,16.83
2018-09-05T08:31:32.388Z,14.90
2018-09-05T08:36:35.807Z,15.10
2018-09-05T08:41:38.881Z,13.30
2018-09-05T08:46:42.018Z,14.97
2018-09-05T08:51:45.183Z,14.60
2018-09-05T08:56:48.428Z,16.60
2018-09-05T09:01:51.588Z,17.57
2018-09-05T09:06:54.808Z,13.47
2018-09-05T09:11:58.011Z,17.33
2018-09-05T09:17:01.223Z,16.07
2018-09-05T09:22:04.428Z,13.10
2018-09-05T09:27:07.688Z,11.43
2018-09-05T09:32:10.907Z,13.57
2018-09-05T09:37:14.115Z,11.00
2018-09-05T09:42:17.316Z,12.30
2018-09-05T09:47:20.567Z,12.13
2018-09-05T09:52:23.755Z,11.03
2018-09-05T09:57:27.020Z,10.30
2018-09-05T10:02:35.739Z,10.53
2018-09-05T10:07:44.447Z,11.70
2018-09-05T10:12:52.232Z,11.03
2018-09-05T10:18:00.917Z,9.80
2018-09-05T10:23:04.091Z,10.63
2018-09-05T10:28:07.276Z,11.23
2018-09-05T10:33:10.487Z,8.83
2018-09-05T10:38:13.685Z,10.30
2018-09-05T10:43:16.867Z,9.67
2018-09-05T10:48:20.251Z,10.27
2018-09-05T10:53:23.427Z,8.53
2018-09-05T10:58:26.616Z,10.53
2018-09-05T11:03:29.799Z,9.23
2018-09-05T11:08:33.050Z,10.70
2018-09-05T11:13:36.243Z,10.30
2018-09-05T11:18:39.468Z,9.80
2018-09-05T11:23:42.739Z,8.93
2018-09-05T11:28:45.938Z,9.47
2018-09-05T11:33:49.115Z,8.60
2018-09-05T11:38:52.312Z,8.93
2018-09-05T11:43:55.662Z,8.87
2018-09-05T11:48:58.899Z,8.93
2018-09-05T11:54:02.200Z,9.33
2018-09-05T11:59:05.384Z,8.57
2018-09-05T12:04:08.571Z,7.73
2018-09-05T12:09:12.594Z,7.87
2018-09-05T12:14:15.788Z,8.87
2018-09-05T12:19:18.983Z,8.13
2018-09-05T12:24:22.172Z,8.30
2018-09-05T12:29:26.060Z,8.17
2018-09-05T12:34:29.244Z,8.10
2018-09-05T12:39:32.469Z,7.80
2018-09-05T12:44:35.709Z,7.67
2018-09-05T12:49:38.852Z,7.90
2018-09-05T12:54:42.045Z,7.30
2018-09-05T12:59:45.256Z,7.93
2018-09-05T13:04:48.428Z,6.60
2018-09-05T13:09:51.632Z,7.43
2018-09-05T13:14:54.872Z,7.40
2018-09-05T13:19:58.054Z,8.00
2018-09-05T13:25:01.320Z,7.63
2018-09-05T13:30:04.608Z,7.30
2018-09-05T13:35:07.796Z,7.37
2018-09-05T13:40:10.983Z,8.40
2018-09-05T13:45:14.230Z,8.17
2018-09-05T13:50:17.367Z,7.37
2018-09-05T13:55:20.564Z,8.00
2018-09-05T14:00:23.773Z,8.40
2018-09-05T14:05:26.964Z,7.43
2018-09-05T14:10:30.160Z,8.03
2018-09-05T14:15:33.344Z,7.90
2018-09-05T14:20:36.568Z,7.60
2018-09-05T14:25:39.716Z,7.67
2018-09-05T14:30:42.911Z,7.57
2018-09-05T14:35:46.247Z,7.60
2018-09-05T14:40:49.472Z,7.47
2018-09-05T14:45:52.651Z,7.20
2018-09-05T14:50:55.870Z,7.57
2018-09-05T14:55:59.032Z,6.87
2018-09-05T15:01:02.238Z,6.80
2018-09-05T15:06:05.413Z,7.93
2018-09-05T15:11:08.636Z,7.37
2018-09-05T15:16:11.899Z,7.63
2018-09-05T15:21:15.102Z,7.20
2018-09-05T15:26:18.308Z,6.97
2018-09-05T15:31:21.583Z,6.50
2018-09-05T15:36:24.819Z,10.60
2018-09-05T15:41:28.051Z,7.30
2018-09-05T15:46:31.295Z,6.83
2018-09-05T15:51:34.550Z,6.87
2018-09-05T15:56:37.865Z,6.30
2018-09-05T16:01:41.098Z,6.63
2018-09-05T16:06:44.364Z,6.87
2018-09-05T16:11:47.619Z,8.13
2018-09-05T16:16:50.832Z,6.50
2018-09-05T16:21:54.098Z,6.83
2018-09-05T16:26:57.456Z,7.20
2018-09-05T16:32:00.649Z,7.30
2018-09-05T16:37:03.849Z,6.43
2018-09-05T16:42:07.048Z,6.83
2018-09-05T16:47:10.248Z,6.13
2018-09-05T16:52:13.456Z,7.27
2018-09-05T16:57:16.668Z,6.87
2018-09-05T17:02:19.899Z,6.37
2018-09-05T17:07:23.116Z,6.03
2018-09-05T17:12:26.885Z,7.43
2018-09-05T17:17:30.124Z,6.57
2018-09-05T17:22:33.429Z,7.07
2018-09-05T17:27:36.583Z,6.90
2018-09-05T17:32:39.920Z,6.90
2018-09-05T17:37:43.183Z,6.00
2018-09-05T17:42:47.696Z,5.97
2018-09-05T17:47:51.368Z,5.90
2018-09-05T17:52:54.692Z,5.80
2018-09-05T17:57:57.948Z,6.70
2018-09-05T18:03:01.193Z,6.40
2018-09-05T18:08:04.459Z,6.80
2018-09-05T18:13:07.667Z,6.40
2018-09-05T18:18:10.899Z,6.67
2018-09-05T18:23:14.155Z,6.00
2018-09-05T18:28:17.442Z,6.00
2018-09-05T18:33:20.838Z,6.17
2018-09-05T18:38:24.240Z,6.50
2018-09-05T18:43:27.457Z,6.47
2018-09-05T18:48:30.724Z,6.50
2018-09-05T18:53:34.587Z,7.00
2018-09-05T18:58:38.080Z,6.70
2018-09-05T19:03:41.376Z,7.33
2018-09-05T19:08:44.667Z,6.40
2018-09-05T19:13:47.936Z,7.50
2018-09-05T19:18:54.811Z,6.47
2018-09-05T19:23:58.331Z,7.70
2018-09-05T19:29:02.720Z,5.90
2018-09-05T19:34:06.132Z,6.60
2018-09-05T19:39:10.237Z,6.70
2018-09-05T19:44:13.641Z,6.37
2018-09-05T19:49:17.102Z,6.50
2018-09-05T19:54:23.478Z,6.63
2018-09-05T19:59:26.844Z,6.67
2018-09-05T20:04:30.777Z,6.90
2018-09-05T20:09:34.185Z,6.40
2018-09-05T20:14:37.627Z,7.63
2018-09-05T20:19:41.192Z,6.43
2018-09-05T20:24:44.457Z,6.43
2018-09-05T20:29:47.731Z,6.50
2018-09-05T20:34:51.028Z,6.87
2018-09-05T20:39:54.328Z,6.20
2018-09-05T20:44:57.632Z,5.80
2018-09-05T20:50:00.928Z,5.80
2018-09-05T20:55:04.284Z,6.17
2018-09-05T21:00:07.664Z,6.80
2018-09-05T21:05:10.985Z,6.47
2018-09-05T21:10:14.391Z,5.80
2018-09-05T21:15:17.881Z,6.70
2018-09-05T21:20:21.397Z,7.20
2018-09-05T21:25:24.755Z,6.77
2018-09-05T21:30:28.209Z,6.03
2018-09-05T21:35:31.704Z,6.10
2018-09-05T21:40:35.152Z,7.77
2018-09-05T21:45:38.674Z,6.73
2018-09-05T21:50:42.076Z,6.03
2018-09-05T21:55:45.573Z,6.13
2018-09-05T22:00:49.052Z,6.60
2018-09-05T22:05:52.489Z,5.97
2018-09-05T22:10:55.973Z,6.47
2018-09-05T22:15:59.985Z,6.30
2018-09-05T22:21:03.388Z,7.20
2018-09-05T22:26:06.998Z,7.27
2018-09-05T22:31:10.532Z,5.90
2018-09-05T22:36:14.057Z,7.03
2018-09-05T22:41:17.453Z,5.47
2018-09-05T22:46:32.144Z,6.97
2018-09-05T22:52:22.991Z,6.63
2018-09-05T22:57:50.042Z,8.40
2018-09-05T23:03:20.644Z,6.83
2018-09-05T23:08:32.994Z,6.60
2018-09-05T23:13:47.541Z,7.20
2018-09-05T23:19:07.442Z,6.77
2018-09-05T23:24:11.017Z,7.30
2018-09-05T23:29:14.393Z,6.40
2018-09-05T23:34:17.673Z,6.60
2018-09-05T23:39:20.983Z,7.77
2018-09-05T23:44:24.327Z,7.63
2018-09-05T23:49:27.613Z,6.43
2018-09-05T23:54:30.930Z,7.27
2018-09-05T23:59:34.232Z,6.93
